Time;durP1;ratioP1;P1;durP2;ratioP2;P2;SDS_P1;SDS_P2;PMS_P1;PMS_P2;Temp;Humidity;BMP_temperature;BMP_pressure;BME280_temperature;BME280_humidity;BME280_pressure;Samples;Min_cycle;Max_cycle;Signal;HPM_P1;HPM_P2
2023/04/16 00:02:19;;;;;;;;;;;;;;;12.29;57.50;101009.00;4955068;28;6915;-73
2023/04/16 00:04:45;;;;;;;;;;;;;;;12.28;57.86;101014.03;4925333;28;7258;-76
2023/04/16 00:07:11;;;;;;;;;;;;;;;12.28;57.73;101012.38;4935568;28;6780;-74
2023/04/16 00:09:36;;;;;;;;;;;;;;;12.28;57.80;101017.50;4943055;28;6929;-74
2023/04/16 00:12:03;;;;;;;;;;;;;;;12.29;58.31;101015.81;4942909;28;6860;-75
2023/04/16 00:14:29;;;;;;;;;;;;;;;12.28;57.69;101012.38;4940714;28;6947;-77
2023/04/16 00:16:55;;;;;;;;;;;;;;;12.27;58.09;101010.63;4956807;28;7329;-74
2023/04/16 00:19:20;;;;;;;;;;;;;;;12.28;57.75;101008.91;4952022;28;6822;-76
2023/04/16 00:21:46;;;;;;;;;;;;;;;12.28;58.10;101008.91;4956642;28;6771;-77
2023/04/16 00:24:12;;;;;;;;;;;;;;;12.28;57.82;101014.03;4939114;28;6807;-77
2023/04/16 00:26:38;;;;;;;;;;;;;;;12.27;58.30;101015.75;4921819;28;6968;-76
2023/04/16 00:29:03;;;;;;;;;;;;;;;12.28;58.12;101008.91;4941279;28;7114;-76
2023/04/16 00:31:32;;;;;;;;;;;;;;;12.29;58.06;101000.38;4950014;28;6951;-76
2023/04/16 00:33:58;;;;;;;;;;;;;;;12.30;57.46;101013.31;4956859;28;8437;-76
2023/04/16 00:36:26;;;;;;;;;;;;;;;12.29;58.14;101014.13;4956997;28;6808;-76
2023/04/16 00:38:53;;;;;;;;;;;;;;;12.31;57.79;101014.19;4955120;28;7090;-76
2023/04/16 00:41:19;;;;;;;;;;;;;;;12.32;58.43;101008.28;4937756;28;7156;-76
2023/04/16 00:43:45;;;;;;;;;;;;;;;12.33;57.93;101013.47;4941419;28;6862;-76
2023/04/16 00:46:11;;;;;;;;;;;;;;;12.35;58.09;101016.13;4954852;28;6780;-76
2023/04/16 00:48:39;;;;;;;;;;;;;;;12.36;58.19;101010.19;4944353;28;7375;-76
2023/04/16 00:51:07;;;;;;;;;;;;;;;12.35;57.67;101006.72;4940280;28;6944;-76
2023/04/16 00:53:34;;;;;;;;;;;;;;;12.38;57.90;101012.84;4953654;28;6851;-76
2023/04/16 00:56:06;;;;;;;;;;;;;;;12.39;57.92;101007.75;4943066;28;7160;-76
2023/04/16 00:58:34;;;;;;;;;;;;;;;12.40;58.12;101013.78;4940953;28;6864;-76
2023/04/16 01:01:00;;;;;;;;;;;;;;;12.40;58.31;101012.09;4936048;28;6982;-76
2023/04/16 01:03:44;;;;;;;;;;;;;;;12.42;58.29;101017.31;4937796;28;6804;-76
2023/04/16 01:06:11;;;;;;;;;;;;;;;12.41;58.61;101016.44;4929975;28;7007;-76
2023/04/16 01:08:38;;;;;;;;;;;;;;;12.42;58.07;101019.88;4932572;28;8341;-76
2023/04/16 01:11:04;;;;;;;;;;;;;;;12.42;58.09;101025.03;4941354;28;6820;-76
2023/04/16 01:13:30;;;;;;;;;;;;;;;12.41;57.76;101015.56;4954360;28;7029;-76
2023/04/16 01:15:56;;;;;;;;;;;;;;;12.42;58.17;101022.47;4954452;28;6808;-76
2023/04/16 01:18:23;;;;;;;;;;;;;;;12.41;57.75;101016.44;4939752;28;6963;-76
2023/04/16 01:20:50;;;;;;;;;;;;;;;12.40;58.31;101018.94;4935529;28;6998;-76
2023/04/16 01:23:17;;;;;;;;;;;;;;;12.38;58.24;101012.84;4943451;28;7285;-76
2023/04/16 01:25:44;;;;;;;;;;;;;;;12.34;58.13;101022.94;4954456;28;7099;-76
2023/04/16 01:28:10;;;;;;;;;;;;;;;12.32;58.61;101014.28;4939051;28;6784;-76
2023/04/16 01:30:35;;;;;;;;;;;;;;;12.30;58.58;101025.28;4938647;28;7139;-76
2023/04/16 01:33:01;;;;;;;;;;;;;;;12.28;58.13;101025.22;4931606;28;7417;-76
2023/04/16 01:35:27;;;;;;;;;;;;;;;12.25;58.46;101025.03;4957715;28;6836;-76
2023/04/16 01:37:52;;;;;;;;;;;;;;;12.25;58.70;101025.03;4941976;28;9481;-76
2023/04/16 01:40:18;;;;;;;;;;;;;;;12.22;58.70;101014.63;4940793;28;6780;-76
2023/04/16 01:42:44;;;;;;;;;;;;;;;12.21;58.63;101015.44;4935607;28;7349;-76
2023/04/16 01:45:11;;;;;;;;;;;;;;;12.19;58.70;101015.34;4924306;28;6972;-76
2023/04/16 01:47:37;;;;;;;;;;;;;;;12.21;58.75;101012.84;4955951;28;7450;-76
2023/04/16 01:50:04;;;;;;;;;;;;;;;12.21;58.50;101012.84;4952218;28;6780;-76
2023/04/16 01:52:30;;;;;;;;;;;;;;;12.22;58.68;101018.09;4955146;28;6804;-76
2023/04/16 01:54:55;;;;;;;;;;;;;;;12.24;58.38;101013.00;4937880;28;7212;-76
2023/04/16 01:57:21;;;;;;;;;;;;;;;12.24;58.60;101015.56;4943179;28;6776;-76
2023/04/16 01:59:47;;;;;;;;;;;;;;;12.23;58.97;101013.81;4941665;28;6784;-76
2023/04/16 02:02:15;;;;;;;;;;;;;;;12.24;58.85;101013.00;4951323;28;6964;-77
2023/04/16 02:04:44;;;;;;;;;;;;;;;12.25;58.90;101013.91;4938618;28;7881;-77
2023/04/16 02:07:10;;;;;;;;;;;;;;;12.26;59.18;101016.53;4919089;28;7128;-77
2023/04/16 02:09:39;;;;;;;;;;;;;;;12.26;58.32;101020.81;4956287;28;7391;-76
2023/04/16 02:12:05;;;;;;;;;;;;;;;12.26;58.66;101015.66;4937812;28;7238;-76
2023/04/16 02:14:32;;;;;;;;;;;;;;;12.26;59.36;101011.38;4942415;28;8272;-81
2023/04/16 02:17:01;;;;;;;;;;;;;;;12.28;59.33;101012.38;4937670;28;7190;-81
2023/04/16 02:19:26;;;;;;;;;;;;;;;12.29;59.32;101011.56;4957171;28;7050;-80
2023/04/16 02:21:53;;;;;;;;;;;;;;;12.32;59.31;101013.41;4956624;28;6776;-81
2023/04/16 02:24:19;;;;;;;;;;;;;;;12.35;58.86;101018.69;4938984;28;6816;-79
2023/04/16 02:26:45;;;;;;;;;;;;;;;12.36;58.65;101018.78;4921839;28;7433;-81
2023/04/16 02:29:11;;;;;;;;;;;;;;;12.36;59.17;101021.34;4948959;28;6799;-79
2023/04/16 02:31:37;;;;;;;;;;;;;;;12.35;58.65;101019.56;4963229;28;6795;-80
2023/04/16 02:34:04;;;;;;;;;;;;;;;12.33;59.02;101017.75;4944833;28;6860;-79
2023/04/16 02:36:30;;;;;;;;;;;;;;;12.32;59.20;101016.84;4943223;28;6992;-83
2023/04/16 02:38:57;;;;;;;;;;;;;;;12.33;59.33;101015.19;4944935;28;6947;-76
2023/04/16 02:41:23;;;;;;;;;;;;;;;12.32;58.99;101016.00;4944895;28;7003;-79
2023/04/16 02:43:49;;;;;;;;;;;;;;;12.32;59.30;101019.41;4963352;28;7873;-77
2023/04/16 02:46:15;;;;;;;;;;;;;;;12.34;59.20;101014.38;4943911;28;7249;-77
2023/04/16 02:48:41;;;;;;;;;;;;;;;12.35;58.98;101016.13;4941684;28;6776;-77
2023/04/16 02:51:06;;;;;;;;;;;;;;;12.32;58.70;101016.84;4958744;28;6950;-77
2023/04/16 02:53:33;;;;;;;;;;;;;;;12.32;58.68;101022.00;4937400;28;6772;-77
2023/04/16 02:55:59;;;;;;;;;;;;;;;12.32;59.09;101029.69;4943778;28;7228;-76
2023/04/16 02:58:25;;;;;;;;;;;;;;;12.32;59.18;101027.13;4958347;28;10286;-77
2023/04/16 03:00:53;;;;;;;;;;;;;;;12.31;59.48;101025.38;4939802;28;7042;-77
2023/04/16 03:03:20;;;;;;;;;;;;;;;12.32;58.81;101028.84;4957332;28;7035;-77
2023/04/16 03:05:46;;;;;;;;;;;;;;;12.31;59.48;101029.63;4956574;28;6811;-77
2023/04/16 03:08:12;;;;;;;;;;;;;;;12.30;58.87;101023.59;4942439;28;7272;-77
2023/04/16 03:10:38;;;;;;;;;;;;;;;12.29;59.24;101024.41;4940966;28;6843;-77
2023/04/16 03:13:04;;;;;;;;;;;;;;;12.29;59.16;101037.25;4929985;28;8271;-77
2023/04/16 03:15:30;;;;;;;;;;;;;;;12.31;59.00;101033.09;4940600;28;6780;-77
2023/04/16 03:17:56;;;;;;;;;;;;;;;12.33;59.29;101028.03;4936350;28;7018;-77
2023/04/16 03:20:22;;;;;;;;;;;;;;;12.33;59.46;101025.47;4933831;28;7493;-77
2023/04/16 03:22:48;;;;;;;;;;;;;;;12.35;59.73;101029.84;4925873;28;6816;-77
2023/04/16 03:25:13;;;;;;;;;;;;;;;12.36;59.72;101034.22;4941006;28;6985;-76
2023/04/16 03:27:40;;;;;;;;;;;;;;;12.37;59.73;101035.06;4938421;28;6998;-76
2023/04/16 03:30:07;;;;;;;;;;;;;;;12.36;59.20;101028.19;4939319;28;7717;-76
2023/04/16 03:32:33;;;;;;;;;;;;;;;12.36;59.22;101029.06;4957069;28;6803;-77
2023/04/16 03:34:59;;;;;;;;;;;;;;;12.39;59.09;101037.75;4945930;28;6851;-77
2023/04/16 03:37:25;;;;;;;;;;;;;;;12.37;59.47;101032.50;4941203;28;7139;-77
2023/04/16 03:39:50;;;;;;;;;;;;;;;12.38;59.11;101036.84;4944575;28;9400;-76
2023/04/16 03:42:16;;;;;;;;;;;;;;;12.39;59.67;101038.59;4941466;28;6843;-77
2023/04/16 03:44:42;;;;;;;;;;;;;;;12.39;59.36;101037.75;4959518;28;6922;-77
2023/04/16 03:47:07;;;;;;;;;;;;;;;12.39;59.26;101043.75;4957763;28;6780;-77
2023/04/16 03:49:33;;;;;;;;;;;;;;;12.38;59.30;101038.53;4940885;28;9852;-77
2023/04/16 03:51:58;;;;;;;;;;;;;;;12.36;59.57;101039.34;4939986;28;6776;-77
2023/04/16 03:54:24;;;;;;;;;;;;;;;12.37;59.88;101032.50;4943503;28;7837;-77
2023/04/16 03:56:50;;;;;;;;;;;;;;;12.36;59.91;101034.22;4941135;28;7064;-77
2023/04/16 03:59:17;;;;;;;;;;;;;;;12.38;59.87;101034.28;4955016;28;7023;-77
2023/04/16 04:01:43;;;;;;;;;;;;;;;12.36;59.99;101033.31;4955318;28;6804;-77
2023/04/16 04:04:08;;;;;;;;;;;;;;;12.36;59.46;101034.22;4938884;28;6772;-77
2023/04/16 04:06:34;;;;;;;;;;;;;;;12.36;59.61;101044.50;4941434;28;6974;-77
2023/04/16 04:09:00;;;;;;;;;;;;;;;12.37;59.61;101045.34;4939186;28;8177;-77
2023/04/16 04:11:26;;;;;;;;;;;;;;;12.38;59.53;101035.97;4938712;28;6776;-77
2023/04/16 04:13:51;;;;;;;;;;;;;;;12.39;59.58;101033.47;4937956;28;7178;-77
2023/04/16 04:16:17;;;;;;;;;;;;;;;12.40;60.22;101040.38;4942572;28;6780;-77
2023/04/16 04:18:43;;;;;;;;;;;;;;;12.41;59.65;101041.25;4940577;28;6959;-77
2023/04/16 04:21:08;;;;;;;;;;;;;;;12.41;59.71;101038.69;4951891;28;7303;-77
2023/04/16 04:23:35;;;;;;;;;;;;;;;12.39;59.74;101041.16;4939215;28;6772;-77
2023/04/16 04:26:04;;;;;;;;;;;;;;;12.38;59.62;101035.97;4955325;28;6792;-77
2023/04/16 04:28:30;;;;;;;;;;;;;;;12.38;60.25;101038.53;4956861;28;7083;-76
2023/04/16 04:30:57;;;;;;;;;;;;;;;12.39;60.27;101036.03;4921810;28;7000;-76
2023/04/16 04:33:26;;;;;;;;;;;;;;;12.42;59.91;101048.16;4943891;28;7156;-77
2023/04/16 04:35:53;;;;;;;;;;;;;;;12.45;60.53;101050.88;4955333;28;8296;-77
2023/04/16 04:38:20;;;;;;;;;;;;;;;12.48;59.75;101051.06;4945917;28;6793;-76
2023/04/16 04:40:51;;;;;;;;;;;;;;;12.52;59.75;101059.81;4957400;28;6800;-77
2023/04/16 04:43:18;;;;;;;;;;;;;;;12.53;60.22;101048.72;4956827;28;7221;-77
2023/04/16 04:45:45;;;;;;;;;;;;;;;12.54;60.02;101053.06;4946266;28;7289;-77
2023/04/16 04:48:11;;;;;;;;;;;;;;;12.54;59.73;101055.63;4943535;28;7162;-77
2023/04/16 04:50:37;;;;;;;;;;;;;;;12.53;59.80;101052.16;4940944;28;8384;-77
2023/04/16 04:53:08;;;;;;;;;;;;;;;12.53;59.97;101053.88;4960728;28;7833;-77
2023/04/16 04:55:37;;;;;;;;;;;;;;;12.50;60.64;101052.00;4926294;28;7500;-77
2023/04/16 04:58:05;;;;;;;;;;;;;;;12.49;60.56;101060.53;4940475;28;7032;-77
2023/04/16 05:00:32;;;;;;;;;;;;;;;12.48;60.65;101063.91;4938166;28;7267;-77
2023/04/16 05:03:02;;;;;;;;;;;;;;;12.48;60.25;101064.78;4939696;28;6804;-77
2023/04/16 05:05:28;;;;;;;;;;;;;;;12.47;60.06;101063.00;4935591;28;6792;-77
2023/04/16 05:07:53;;;;;;;;;;;;;;;12.50;59.98;101067.44;4933749;28;7131;-77
2023/04/16 05:10:19;;;;;;;;;;;;;;;12.51;60.28;101064.06;4936465;28;6863;-77
2023/04/16 05:12:47;;;;;;;;;;;;;;;12.52;60.52;101070.09;4939603;28;8906;-77
2023/04/16 05:15:13;;;;;;;;;;;;;;;12.53;60.68;101075.28;4931460;28;8552;-76
2023/04/16 05:17:40;;;;;;;;;;;;;;;12.53;60.77;101083.00;4941135;28;6797;-77
2023/04/16 05:20:08;;;;;;;;;;;;;;;12.53;60.41;101082.16;4939905;28;6996;-76
2023/04/16 05:22:34;;;;;;;;;;;;;;;12.55;60.72;101078.81;4932496;28;7007;-76
2023/04/16 05:25:00;;;;;;;;;;;;;;;12.58;60.09;101079.00;4939059;28;7167;-76
2023/04/16 05:27:25;;;;;;;;;;;;;;;12.59;60.45;101085.00;4954843;28;6804;-76
2023/04/16 05:29:51;;;;;;;;;;;;;;;12.59;60.94;101080.75;4940419;28;6780;-76
2023/04/16 05:32:16;;;;;;;;;;;;;;;12.60;60.96;101090.25;4921274;28;6966;-76
2023/04/16 05:34:42;;;;;;;;;;;;;;;12.60;61.13;101094.47;4942516;28;6792;-76
2023/04/16 05:37:08;;;;;;;;;;;;;;;12.60;60.31;101095.38;4941715;28;6773;-76
2023/04/16 05:39:33;;;;;;;;;;;;;;;12.61;60.46;101092.00;4950669;28;7276;-77
2023/04/16 05:41:59;;;;;;;;;;;;;;;12.64;61.15;101096.44;4953358;28;6958;-77
2023/04/16 05:44:25;;;;;;;;;;;;;;;12.64;60.92;101094.72;4941598;28;7295;-77
2023/04/16 05:46:50;;;;;;;;;;;;;;;12.64;60.43;101107.56;4939867;28;6936;-77
2023/04/16 05:49:17;;;;;;;;;;;;;;;12.65;60.71;101108.47;4923909;28;7555;-77
2023/04/16 05:51:43;;;;;;;;;;;;;;;12.66;60.90;101099.94;4926254;28;6820;-76
2023/04/16 05:54:09;;;;;;;;;;;;;;;12.67;61.25;101106.84;4928932;28;6772;-76
2023/04/16 05:56:35;;;;;;;;;;;;;;;12.69;60.84;101104.38;4929530;28;7019;-77
2023/04/16 05:59:00;;;;;;;;;;;;;;;12.69;61.35;101109.53;4946142;28;8071;-76
2023/04/16 06:01:26;;;;;;;;;;;;;;;12.69;61.02;101115.53;4922154;28;7225;-77
2023/04/16 06:03:51;;;;;;;;;;;;;;;12.69;60.69;101112.97;4935708;28;6820;-76
2023/04/16 06:06:17;;;;;;;;;;;;;;;12.69;60.90;101112.97;4937458;28;6987;-77
2023/04/16 06:08:43;;;;;;;;;;;;;;;12.69;61.55;101117.22;4934749;28;7168;-77
2023/04/16 06:11:08;;;;;;;;;;;;;;;12.72;60.85;101112.22;4935018;28;8362;-76
2023/04/16 06:13:34;;;;;;;;;;;;;;;12.73;60.96;101119.13;4937988;28;6788;-76
2023/04/16 06:16:00;;;;;;;;;;;;;;;12.73;61.40;101111.44;4928581;28;6974;-77
2023/04/16 06:18:25;;;;;;;;;;;;;;;12.75;61.17;101115.84;4950960;28;6856;-77
2023/04/16 06:20:51;;;;;;;;;;;;;;;12.78;61.35;101117.69;4940605;28;6987;-76
2023/04/16 06:23:17;;;;;;;;;;;;;;;12.81;61.57;101123.00;4932706;28;6979;-76
2023/04/16 06:25:42;;;;;;;;;;;;;;;12.81;61.42;101123.00;4951517;28;8072;-77
2023/04/16 06:28:08;;;;;;;;;;;;;;;12.85;61.36;101122.34;4930270;28;7655;-76
2023/04/16 06:30:33;;;;;;;;;;;;;;;12.87;60.94;101125.88;4930137;28;8384;-76
2023/04/16 06:32:59;;;;;;;;;;;;;;;12.91;61.15;101126.91;4930926;28;6806;-76
2023/04/16 06:35:25;;;;;;;;;;;;;;;12.94;61.45;101121.03;4931588;28;6959;-77
2023/04/16 06:37:51;;;;;;;;;;;;;;;12.97;60.91;101127.22;4928229;28;7169;-76
2023/04/16 06:40:16;;;;;;;;;;;;;;;12.99;61.57;101132.44;4925116;28;8449;-77
2023/04/16 06:42:42;;;;;;;;;;;;;;;13.02;61.65;101130.00;4935111;28;6971;-77
2023/04/16 06:45:08;;;;;;;;;;;;;;;13.05;60.87;101132.75;4948158;28;6799;-77
2023/04/16 06:47:34;;;;;;;;;;;;;;;13.08;61.05;101144.88;4932437;28;6915;-76
2023/04/16 06:49:59;;;;;;;;;;;;;;;13.08;60.51;101140.63;4933678;28;9580;-76
2023/04/16 06:52:25;;;;;;;;;;;;;;;13.07;61.26;101141.44;4933285;28;9942;-77
2023/04/16 06:54:51;;;;;;;;;;;;;;;13.08;61.07;101142.28;4937377;28;7726;-77
2023/04/16 06:57:17;;;;;;;;;;;;;;;13.08;61.42;101143.19;4942302;28;8819;-76
2023/04/16 06:59:42;;;;;;;;;;;;;;;13.11;61.22;101145.03;4929825;28;6965;-77
2023/04/16 07:02:09;;;;;;;;;;;;;;;13.12;61.52;101142.53;4940381;28;7306;-77
2023/04/16 07:04:35;;;;;;;;;;;;;;;13.15;60.79;101152.09;4927306;28;7845;-73
2023/04/16 07:07:01;;;;;;;;;;;;;;;13.14;60.78;101146.09;4950277;28;6991;-74
2023/04/16 07:09:26;;;;;;;;;;;;;;;13.15;60.95;101142.69;4931906;28;7121;-78
2023/04/16 07:11:53;;;;;;;;;;;;;;;13.16;61.57;101152.19;4929590;28;6997;-78
2023/04/16 07:14:19;;;;;;;;;;;;;;;13.17;60.75;101156.53;4955338;28;7228;-73
2023/04/16 07:16:44;;;;;;;;;;;;;;;13.17;61.48;101159.09;4929038;28;7188;-76
2023/04/16 07:19:10;;;;;;;;;;;;;;;13.18;60.83;101160.84;4941658;28;6848;-74
2023/04/16 07:21:36;;;;;;;;;;;;;;;13.20;60.62;101159.22;4960447;28;7186;-78
2023/04/16 07:24:02;;;;;;;;;;;;;;;13.23;61.00;101165.34;4934785;28;8019;-78
2023/04/16 07:26:27;;;;;;;;;;;;;;;13.23;60.83;101167.91;4933485;28;6979;-77
2023/04/16 07:28:53;;;;;;;;;;;;;;;13.24;60.94;101169.69;4940070;28;7193;-75
2023/04/16 07:31:18;;;;;;;;;;;;;;;13.24;60.85;101169.69;4937474;28;6792;-74
2023/04/16 07:33:44;;;;;;;;;;;;;;;13.25;61.22;101167.19;4921634;28;6980;-76
2023/04/16 07:36:10;;;;;;;;;;;;;;;13.27;61.31;101172.41;4943076;28;8259;-74
2023/04/16 07:38:35;;;;;;;;;;;;;;;13.27;61.64;101178.44;4941609;28;6961;-75
2023/04/16 07:41:01;;;;;;;;;;;;;;;13.27;61.79;101172.41;4939016;28;6776;-76
2023/04/16 07:43:27;;;;;;;;;;;;;;;13.27;60.84;101180.13;4937152;28;7316;-74
2023/04/16 07:45:52;;;;;;;;;;;;;;;13.28;61.60;101180.22;4917302;28;7247;-78
2023/04/16 07:48:18;;;;;;;;;;;;;;;13.29;61.00;101179.41;4951622;28;6839;-76
2023/04/16 07:50:43;;;;;;;;;;;;;;;13.31;61.83;101184.63;4952972;28;7682;-77
2023/04/16 07:53:09;;;;;;;;;;;;;;;13.31;61.53;101184.63;4956979;28;6780;-74
2023/04/16 07:55:35;;;;;;;;;;;;;;;13.32;61.61;101188.97;4950339;28;6964;-77
2023/04/16 07:58:01;;;;;;;;;;;;;;;13.31;61.66;101194.91;4948218;28;6787;-75
2023/04/16 08:00:28;;;;;;;;;;;;;;;13.34;61.71;101195.09;4950843;28;6800;-75
2023/04/16 08:02:54;;;;;;;;;;;;;;;13.36;61.78;101193.47;4935375;28;7199;-74
2023/04/16 08:05:20;;;;;;;;;;;;;;;13.36;61.09;101201.19;4935125;28;7122;-75
2023/04/16 08:07:45;;;;;;;;;;;;;;;13.37;61.14;101202.06;4949870;28;7013;-74
2023/04/16 08:10:11;;;;;;;;;;;;;;;13.36;61.18;101201.19;4941884;28;7229;-77
2023/04/16 08:12:37;;;;;;;;;;;;;;;13.37;61.40;101199.47;4930229;28;12558;-73
2023/04/16 08:15:04;;;;;;;;;;;;;;;13.38;61.66;101203.84;4932181;28;6996;-74
2023/04/16 08:17:29;;;;;;;;;;;;;;;13.40;61.62;101210.81;4952928;28;7051;-76
2023/04/16 08:19:55;;;;;;;;;;;;;;;13.40;60.79;101215.97;4940346;28;6817;-74
2023/04/16 08:22:21;;;;;;;;;;;;;;;13.41;61.04;101217.72;4938253;28;6943;-75
2023/04/16 08:24:47;;;;;;;;;;;;;;;13.40;61.36;101222.84;4953545;28;7136;-75
2023/04/16 08:27:12;;;;;;;;;;;;;;;13.39;61.77;101221.06;4936109;28;6953;-74
2023/04/16 08:29:38;;;;;;;;;;;;;;;13.37;61.35;101222.66;4921332;28;6959;-73
2023/04/16 08:32:04;;;;;;;;;;;;;;;13.37;61.88;101226.13;4938148;28;6971;-74
2023/04/16 08:34:29;;;;;;;;;;;;;;;13.38;61.90;101230.47;4951351;28;6821;-75
2023/04/16 08:36:55;;;;;;;;;;;;;;;13.41;61.01;101228.03;4929479;28;6987;-76
2023/04/16 08:39:21;;;;;;;;;;;;;;;13.45;62.01;101230.00;4939291;28;7235;-74
2023/04/16 08:41:46;;;;;;;;;;;;;;;13.50;61.97;101226.75;4938455;28;6806;-74
2023/04/16 08:44:29;;;;;;;;;;;;;;;13.56;61.44;101235.66;4944299;28;6959;-78
2023/04/16 08:46:57;;;;;;;;;;;;;;;13.61;61.43;101229.06;4928175;28;6995;-75
2023/04/16 08:49:25;;;;;;;;;;;;;;;13.66;61.89;101234.44;4937032;28;6868;-74
2023/04/16 08:51:54;;;;;;;;;;;;;;;13.70;61.12;101241.50;4939529;28;6995;-77
2023/04/16 08:54:46;;;;;;;;;;;;;;;13.73;61.73;101236.50;4959192;28;6800;-74
2023/04/16 08:57:18;;;;;;;;;;;;;;;13.77;61.86;101242.69;4943142;28;6816;-76
2023/04/16 08:59:48;;;;;;;;;;;;;;;13.81;61.22;101248.84;4935560;28;6904;-76
2023/04/16 09:02:14;;;;;;;;;;;;;;;13.86;61.65;101243.16;4939905;28;6812;-76
2023/04/16 09:04:41;;;;;;;;;;;;;;;13.93;62.08;101251.16;4937138;28;6899;-76
2023/04/16 09:07:11;;;;;;;;;;;;;;;14.01;61.74;101249.81;4957518;28;6930;-76
2023/04/16 09:09:40;;;;;;;;;;;;;;;14.14;61.82;101251.28;4942337;28;7003;-77
2023/04/16 09:12:07;;;;;;;;;;;;;;;14.22;61.29;101256.78;4940294;28;7002;-74
2023/04/16 09:14:33;;;;;;;;;;;;;;;14.24;61.49;101253.50;4940803;28;6988;-73
2023/04/16 09:17:01;;;;;;;;;;;;;;;14.29;61.81;101252.03;4935697;28;7015;-75
2023/04/16 09:19:27;;;;;;;;;;;;;;;14.33;60.80;101257.31;4932603;28;7226;-76
2023/04/16 09:21:53;;;;;;;;;;;;;;;14.35;60.63;101255.69;4941196;28;6769;-77
2023/04/16 09:24:18;;;;;;;;;;;;;;;14.36;60.74;101250.59;4959074;28;6772;-77
2023/04/16 09:26:45;;;;;;;;;;;;;;;14.36;60.54;101254.88;4937101;28;6966;-77
2023/04/16 09:29:11;;;;;;;;;;;;;;;14.39;61.40;101257.56;4940995;28;6992;-78
2023/04/16 09:31:37;;;;;;;;;;;;;;;14.46;61.39;101259.63;4944447;28;6768;-77
2023/04/16 09:34:08;;;;;;;;;;;;;;;14.50;61.00;101258.97;4959102;28;7006;-75
2023/04/16 09:36:35;;;;;;;;;;;;;;;14.51;60.76;101271.06;4940732;28;7083;-75
2023/04/16 09:39:02;;;;;;;;;;;;;;;14.50;60.30;101269.28;4946380;28;6978;-75
2023/04/16 09:41:38;;;;;;;;;;;;;;;14.51;60.27;101271.06;4943057;28;7092;-78
2023/04/16 09:44:04;;;;;;;;;;;;;;;14.53;60.98;101269.41;4956693;28;7019;-79
2023/04/16 09:46:33;;;;;;;;;;;;;;;14.54;60.83;101275.47;4938981;28;6985;-77
2023/04/16 09:49:15;;;;;;;;;;;;;;;14.59;60.39;101273.97;4958886;28;7031;-76
2023/04/16 09:51:44;;;;;;;;;;;;;;;14.67;61.10;101277.78;4940537;28;6804;-75
2023/04/16 09:54:10;;;;;;;;;;;;;;;14.87;62.06;101272.66;4955630;28;6992;-74
2023/04/16 09:56:45;;;;;;;;;;;;;;;15.08;61.67;101265.00;4944557;28;6804;-76
2023/04/16 09:59:22;;;;;;;;;;;;;;;15.31;60.86;101267.66;4944333;28;7218;-78
2023/04/16 10:01:51;;;;;;;;;;;;;;;15.44;60.17;101268.16;4941773;28;6974;-76
2023/04/16 10:04:17;;;;;;;;;;;;;;;15.46;59.72;101269.16;4955767;28;7050;-78
2023/04/16 10:06:45;;;;;;;;;;;;;;;15.45;59.83;101269.94;4937803;28;7005;-74
2023/04/16 10:09:11;;;;;;;;;;;;;;;15.45;59.61;101272.50;4943349;28;6812;-76
2023/04/16 10:11:37;;;;;;;;;;;;;;;15.54;60.10;101280.66;4937534;28;6944;-75
2023/04/16 10:14:02;;;;;;;;;;;;;;;15.70;60.31;101279.63;4944669;28;6856;-76
2023/04/16 10:16:29;;;;;;;;;;;;;;;15.91;59.88;101281.34;4953209;28;8663;-76
2023/04/16 10:18:57;;;;;;;;;;;;;;;16.04;59.62;101277.53;4945718;28;6800;-74
2023/04/16 10:21:23;;;;;;;;;;;;;;;16.08;59.08;101280.31;4961364;28;7008;-77
2023/04/16 10:23:50;;;;;;;;;;;;;;;16.07;58.50;101278.50;4942650;28;6788;-76
2023/04/16 10:26:17;;;;;;;;;;;;;;;16.03;58.02;101280.91;4959903;28;7252;-75
2023/04/16 10:28:44;;;;;;;;;;;;;;;15.96;57.96;101277.22;4943311;28;6793;-74
2023/04/16 10:31:12;;;;;;;;;;;;;;;15.89;58.06;101282.94;4943653;28;6868;-76
2023/04/16 10:33:43;;;;;;;;;;;;;;;15.80;57.82;101288.59;4956687;28;6953;-75
2023/04/16 10:36:22;;;;;;;;;;;;;;;15.74;58.14;101283.19;4943539;28;7086;-77
2023/04/16 10:38:58;;;;;;;;;;;;;;;15.75;58.34;101290.13;4958373;28;7130;-77
2023/04/16 10:41:25;;;;;;;;;;;;;;;15.76;58.08;101297.06;4943706;28;6871;-78
2023/04/16 10:43:52;;;;;;;;;;;;;;;15.78;58.02;101292.84;4939943;28;7191;-73
2023/04/16 10:46:17;;;;;;;;;;;;;;;15.79;58.15;101292.91;4943378;28;7136;-74
2023/04/16 10:48:43;;;;;;;;;;;;;;;15.82;57.31;101293.03;4943360;28;8053;-73
2023/04/16 10:51:32;;;;;;;;;;;;;;;15.80;57.39;101291.19;4943767;28;6776;-76
2023/04/16 10:54:07;;;;;;;;;;;;;;;15.81;57.58;101288.69;4947918;28;6816;-77
2023/04/16 10:56:34;;;;;;;;;;;;;;;15.93;58.21;101290.03;4962643;28;6993;-76
2023/04/16 10:59:00;;;;;;;;;;;;;;;16.12;57.93;101289.03;4963912;28;6880;-77
2023/04/16 11:01:35;;;;;;;;;;;;;;;16.30;58.03;101283.72;4960633;28;8661;-73
2023/04/16 11:04:24;;;;;;;;;;;;;;;16.47;57.67;101278.31;4947489;28;6824;-74
2023/04/16 11:07:15;;;;;;;;;;;;;;;16.63;57.15;101282.34;4964256;28;6995;-75
2023/04/16 11:09:59;;;;;;;;;;;;;;;16.76;57.07;101279.38;4944925;28;6792;-75
2023/04/16 11:12:28;;;;;;;;;;;;;;;16.89;56.59;101278.13;4947149;28;7146;-75
2023/04/16 11:15:00;;;;;;;;;;;;;;;17.02;56.81;101276.00;4949934;28;6816;-74
2023/04/16 11:17:45;;;;;;;;;;;;;;;17.18;56.37;101280.00;4943319;28;6831;-76
2023/04/16 11:20:22;;;;;;;;;;;;;;;17.33;56.11;101280.53;4949129;28;6812;-75
2023/04/16 11:22:50;;;;;;;;;;;;;;;17.41;55.08;101278.19;4927840;28;7098;-74
2023/04/16 11:25:28;;;;;;;;;;;;;;;17.46;54.90;101278.34;4945875;28;6946;-74
2023/04/16 11:27:56;;;;;;;;;;;;;;;17.56;55.08;101272.66;4948319;28;6970;-74
2023/04/16 11:30:34;;;;;;;;;;;;;;;17.72;55.50;101278.34;4945049;28;7296;-74
2023/04/16 11:33:12;;;;;;;;;;;;;;;17.87;54.63;101271.09;4960282;28;6815;-74
2023/04/16 11:35:39;;;;;;;;;;;;;;;17.94;53.50;101273.84;4944328;28;6785;-75
2023/04/16 11:38:07;;;;;;;;;;;;;;;17.93;53.93;101279.88;4947637;28;6800;-75
2023/04/16 11:40:33;;;;;;;;;;;;;;;17.87;53.58;101278.84;4957669;28;6792;-75
2023/04/16 11:43:13;;;;;;;;;;;;;;;17.89;53.84;101278.88;4944591;28;6789;-74
2023/04/16 11:45:59;;;;;;;;;;;;;;;17.99;53.68;101272.28;4960599;28;7267;-74
2023/04/16 11:48:25;;;;;;;;;;;;;;;18.25;54.69;101280.91;4941821;28;7153;-75
2023/04/16 11:50:56;;;;;;;;;;;;;;;19.02;54.77;101271.00;4961501;28;7256;-75
2023/04/16 11:53:22;;;;;;;;;;;;;;;20.06;53.14;101267.50;4942086;28;6772;-76
2023/04/16 11:55:48;;;;;;;;;;;;;;;20.73;50.63;101269.78;4939889;28;6780;-75
2023/04/16 11:58:16;;;;;;;;;;;;;;;20.88;49.16;101264.03;4960257;28;6762;-77
2023/04/16 12:00:43;;;;;;;;;;;;;;;20.80;48.66;101263.81;4938104;28;7096;-79
2023/04/16 12:03:09;;;;;;;;;;;;;;;20.94;49.21;101264.13;4961216;28;7257;-77
2023/04/16 12:05:39;;;;;;;;;;;;;;;21.26;48.41;101260.34;4947335;28;6804;-80
2023/04/16 12:08:08;;;;;;;;;;;;;;;21.51;47.51;101258.19;4931258;28;8432;-80
2023/04/16 12:10:51;;;;;;;;;;;;;;;21.71;46.88;101261.13;4957565;28;6800;-77
2023/04/16 12:13:16;;;;;;;;;;;;;;;21.80;46.19;101256.91;4944208;28;6820;-76
2023/04/16 12:15:54;;;;;;;;;;;;;;;21.73;46.05;101259.44;4961094;28;7171;-76
2023/04/16 12:18:25;;;;;;;;;;;;;;;21.49;45.54;101268.56;4940130;28;7015;-76
2023/04/16 12:20:51;;;;;;;;;;;;;;;21.08;45.57;101273.94;4943165;28;6804;-76
2023/04/16 12:23:28;;;;;;;;;;;;;;;20.64;45.85;101270.47;4941516;28;6776;-76
2023/04/16 12:25:55;;;;;;;;;;;;;;;20.25;46.11;101281.78;4939933;28;8798;-76
2023/04/16 12:28:34;;;;;;;;;;;;;;;19.92;46.68;101278.44;4938666;28;6983;-76
2023/04/16 12:31:01;;;;;;;;;;;;;;;19.65;46.92;101284.75;4942723;28;6999;-76
2023/04/16 12:33:26;;;;;;;;;;;;;;;19.49;47.18;101280.00;4961955;28;6892;-76
2023/04/16 12:35:52;;;;;;;;;;;;;;;19.38;47.69;101277.13;4945248;28;6844;-76
2023/04/16 12:38:18;;;;;;;;;;;;;;;19.31;47.73;101277.78;4961871;28;6776;-76
2023/04/16 12:40:44;;;;;;;;;;;;;;;19.32;48.61;101287.38;4941257;28;7434;-76
2023/04/16 12:43:10;;;;;;;;;;;;;;;19.40;48.35;101278.03;4962567;28;6776;-76
2023/04/16 12:45:37;;;;;;;;;;;;;;;19.64;49.13;101276.91;4945761;28;6788;-76
2023/04/16 12:48:03;;;;;;;;;;;;;;;20.12;48.55;101288.44;4946157;28;7003;-76
2023/04/16 12:50:29;;;;;;;;;;;;;;;20.42;47.23;101282.16;4942835;28;6945;-77